createdAt,value
2022-10-09T00:01:38.649Z,28.65
2022-10-09T00:04:01.234Z,28.52
2022-10-09T00:06:32.387Z,29.27
2022-10-09T00:08:56.123Z,26.73
2022-10-09T00:11:22.274Z,26.98
2022-10-09T00:13:45.659Z,26.58
2022-10-09T00:16:10.822Z,27.10
2022-10-09T00:18:33.826Z,26.52
2022-10-09T00:20:56.360Z,26.63
2022-10-09T00:23:19.173Z,25.58
2022-10-09T00:25:53.570Z,25.95
2022-10-09T00:28:16.262Z,26.63
2022-10-09T00:30:39.458Z,26.00
2022-10-09T00:33:02.079Z,25.90
2022-10-09T00:35:24.677Z,26.85
2022-10-09T00:37:48.724Z,28.85
2022-10-09T00:40:11.630Z,24.17
2022-10-09T00:42:34.264Z,22.95
2022-10-09T00:45:00.271Z,26.80
2022-10-09T00:47:34.806Z,23.08
2022-10-09T00:50:12.075Z,25.35
2022-10-09T00:52:34.665Z,27.00
2022-10-09T00:54:59.226Z,23.63
2022-10-09T00:57:21.934Z,24.23
2022-10-09T00:59:45.192Z,24.98
2022-10-09T01:02:07.950Z,24.88
2022-10-09T01:04:31.083Z,25.92
2022-10-09T01:07:18.230Z,24.13
2022-10-09T01:10:05.169Z,25.83
2022-10-09T01:12:58.580Z,27.73
2022-10-09T01:15:53.676Z,31.67
2022-10-09T01:18:29.046Z,25.65
2022-10-09T01:20:56.686Z,28.45
2022-10-09T01:23:35.817Z,29.30
2022-10-09T01:26:13.298Z,28.35
2022-10-09T01:28:38.477Z,27.80
2022-10-09T01:31:04.606Z,28.65
2022-10-09T01:33:30.516Z,29.75
2022-10-09T01:35:53.721Z,29.93
2022-10-09T01:38:17.907Z,30.88
2022-10-09T01:40:40.475Z,31.02
2022-10-09T01:43:03.187Z,31.10
2022-10-09T01:45:25.831Z,34.53
2022-10-09T01:47:48.451Z,31.73
2022-10-09T01:50:27.421Z,31.80
2022-10-09T01:52:53.801Z,36.30
2022-10-09T01:55:34.329Z,37.47
2022-10-09T01:58:00.058Z,35.60
2022-10-09T02:00:23.072Z,37.17
2022-10-09T02:02:46.735Z,37.03
2022-10-09T02:05:22.697Z,36.05
2022-10-09T02:07:46.012Z,38.53
2022-10-09T02:10:10.144Z,34.03
2022-10-09T02:12:38.657Z,38.80
2022-10-09T02:15:01.121Z,36.47
2022-10-09T02:17:29.332Z,38.58
2022-10-09T02:19:56.992Z,38.45
2022-10-09T02:22:25.080Z,40.92
2022-10-09T02:24:47.956Z,39.20
2022-10-09T02:27:12.466Z,43.22
2022-10-09T02:29:35.596Z,43.65
2022-10-09T02:31:58.205Z,42.17
2022-10-09T02:34:21.303Z,45.13
2022-10-09T02:36:48.626Z,41.47
2022-10-09T02:39:11.251Z,41.30
2022-10-09T02:41:34.112Z,40.90
2022-10-09T02:43:56.733Z,42.65
2022-10-09T02:46:19.676Z,42.33
2022-10-09T02:48:42.369Z,46.23
2022-10-09T02:51:05.040Z,46.60
2022-10-09T02:53:27.925Z,45.58
2022-10-09T02:55:50.624Z,47.17
2022-10-09T02:58:14.981Z,47.35
2022-10-09T03:00:38.374Z,44.20
2022-10-09T03:03:00.931Z,47.63
2022-10-09T03:05:23.516Z,51.58
2022-10-09T03:07:51.306Z,47.88
2022-10-09T03:10:14.076Z,47.05
2022-10-09T03:12:36.511Z,48.10
2022-10-09T03:14:59.036Z,47.30
2022-10-09T03:17:21.576Z,48.85
2022-10-09T03:19:45.905Z,45.75
2022-10-09T03:22:08.404Z,50.35
2022-10-09T03:24:31.029Z,51.30
2022-10-09T03:26:53.626Z,52.60
2022-10-09T03:29:16.058Z,54.65
2022-10-09T03:31:54.085Z,53.00
2022-10-09T03:34:16.877Z,50.83
2022-10-09T03:36:40.093Z,48.57
2022-10-09T03:39:02.607Z,49.25
2022-10-09T03:41:25.119Z,51.15
2022-10-09T03:43:47.736Z,50.17
2022-10-09T03:46:11.285Z,50.78
2022-10-09T03:48:34.821Z,50.50
2022-10-09T03:50:57.337Z,53.70
2022-10-09T03:53:19.878Z,50.42
2022-10-09T03:55:43.161Z,52.55
2022-10-09T03:58:06.185Z,52.03
2022-10-09T04:00:28.861Z,54.50
2022-10-09T04:02:51.829Z,52.20
2022-10-09T04:05:14.808Z,52.55
2022-10-09T04:07:37.384Z,54.85
2022-10-09T04:10:01.413Z,57.05
2022-10-09T04:12:24.280Z,56.73
2022-10-09T04:14:46.870Z,52.88
2022-10-09T04:17:09.659Z,52.95
2022-10-09T04:19:34.858Z,56.50
2022-10-09T04:21:57.631Z,51.65
2022-10-09T04:24:20.092Z,54.17
2022-10-09T04:26:42.677Z,52.53
2022-10-09T04:29:05.989Z,53.03
2022-10-09T04:31:28.624Z,49.90
2022-10-09T04:33:51.195Z,53.85
2022-10-09T04:36:13.793Z,49.23
2022-10-09T04:38:36.382Z,51.72
2022-10-09T04:41:05.392Z,49.22
2022-10-09T04:43:28.865Z,51.20
2022-10-09T04:45:51.444Z,52.50
2022-10-09T04:48:14.039Z,48.93
2022-10-09T04:50:39.095Z,53.00
2022-10-09T04:53:01.613Z,53.80
2022-10-09T04:55:24.132Z,55.53
2022-10-09T04:57:46.993Z,53.20
2022-10-09T05:00:10.275Z,53.20
2022-10-09T05:02:32.926Z,52.28
2022-10-09T05:04:57.368Z,51.58
2022-10-09T05:07:19.980Z,55.88
2022-10-09T05:09:42.679Z,50.13
2022-10-09T05:12:05.293Z,52.03
2022-10-09T05:14:27.799Z,52.58
2022-10-09T05:17:13.068Z,52.83
2022-10-09T05:19:36.713Z,50.33
2022-10-09T05:22:00.937Z,47.55
2022-10-09T05:24:23.429Z,47.40
2022-10-09T05:26:45.960Z,49.42
2022-10-09T05:29:08.667Z,46.85
2022-10-09T05:31:31.902Z,44.38
2022-10-09T05:33:56.285Z,47.30
2022-10-09T05:36:19.714Z,46.97
2022-10-09T05:38:42.513Z,44.00
2022-10-09T05:41:07.693Z,44.47
2022-10-09T05:43:33.789Z,44.05
2022-10-09T05:45:56.394Z,50.28
2022-10-09T05:48:19.987Z,42.43
2022-10-09T05:50:42.656Z,43.35
2022-10-09T05:53:05.205Z,41.85
2022-10-09T05:55:28.251Z,43.38
2022-10-09T05:57:53.011Z,40.70
2022-10-09T06:00:15.535Z,42.40
2022-10-09T06:02:38.100Z,39.45
2022-10-09T06:05:00.708Z,42.97
2022-10-09T06:07:23.223Z,40.63
2022-10-09T06:09:46.344Z,38.70
2022-10-09T06:12:09.052Z,40.73
2022-10-09T06:14:31.774Z,42.53
2022-10-09T06:16:54.382Z,39.88
2022-10-09T06:19:19.361Z,42.17
2022-10-09T06:21:42.667Z,46.13
2022-10-09T06:24:06.786Z,41.90
2022-10-09T06:26:30.585Z,43.20
2022-10-09T06:28:53.223Z,43.63
2022-10-09T06:31:21.126Z,41.72
2022-10-09T06:33:45.105Z,44.15
2022-10-09T06:36:15.963Z,44.00
2022-10-09T06:38:39.356Z,42.58
2022-10-09T06:41:06.769Z,40.22
2022-10-09T06:43:29.604Z,40.45
2022-10-09T06:45:52.089Z,39.47
2022-10-09T06:48:14.692Z,44.07
2022-10-09T06:50:37.549Z,39.20
2022-10-09T06:53:00.247Z,41.17
2022-10-09T06:55:27.864Z,36.60
2022-10-09T06:57:51.121Z,37.65
2022-10-09T07:00:14.332Z,35.83
2022-10-09T07:02:41.802Z,38.78
2022-10-09T07:05:06.924Z,39.70
2022-10-09T07:07:29.466Z,35.67
2022-10-09T07:09:54.686Z,33.60
2022-10-09T07:12:17.396Z,35.90
2022-10-09T07:14:39.855Z,35.67
2022-10-09T07:17:43.424Z,36.33
2022-10-09T07:20:06.757Z,36.58
2022-10-09T07:22:29.955Z,35.63
2022-10-09T07:24:52.899Z,32.03
2022-10-09T07:27:15.534Z,34.45
2022-10-09T07:29:38.591Z,33.63
2022-10-09T07:32:01.158Z,30.67
2022-10-09T07:34:23.838Z,32.78
2022-10-09T07:36:46.413Z,28.93
2022-10-09T07:39:09.104Z,31.48
2022-10-09T07:41:31.616Z,29.13
2022-10-09T07:43:54.507Z,28.27
2022-10-09T07:46:19.719Z,26.10
2022-10-09T07:48:43.111Z,27.53
2022-10-09T07:51:16.661Z,24.92
2022-10-09T07:53:39.376Z,27.15
2022-10-09T07:56:01.833Z,23.13
2022-10-09T07:58:25.448Z,26.67
2022-10-09T08:00:47.893Z,25.20
2022-10-09T08:03:10.742Z,24.63
2022-10-09T08:05:33.333Z,23.40
2022-10-09T08:07:56.114Z,25.95
2022-10-09T08:10:18.660Z,24.67
2022-10-09T08:12:41.197Z,22.37
2022-10-09T08:15:04.024Z,23.00
2022-10-09T08:17:26.615Z,22.42
2022-10-09T08:19:49.180Z,22.67
2022-10-09T08:22:14.298Z,21.70
2022-10-09T08:24:36.806Z,23.07
2022-10-09T08:26:59.752Z,23.23
2022-10-09T08:29:22.236Z,22.77
2022-10-09T08:31:44.794Z,21.17
2022-10-09T08:34:07.435Z,20.83
2022-10-09T08:36:30.869Z,22.00
2022-10-09T08:38:53.507Z,22.45
2022-10-09T08:41:18.829Z,18.52
2022-10-09T08:43:47.034Z,20.77
2022-10-09T08:46:41.535Z,19.10
2022-10-09T08:49:05.277Z,18.13
2022-10-09T08:51:33.181Z,17.30
2022-10-09T08:54:04.477Z,16.65
2022-10-09T08:56:27.702Z,17.20
2022-10-09T08:58:50.292Z,17.48
2022-10-09T09:01:16.886Z,18.67
2022-10-09T09:03:57.627Z,16.67
2022-10-09T09:07:04.471Z,15.52
2022-10-09T09:09:45.500Z,15.10
2022-10-09T09:12:48.984Z,15.50
2022-10-09T09:15:38.331Z,14.00
2022-10-09T09:18:25.556Z,16.50
2022-10-09T09:20:48.209Z,15.77
2022-10-09T09:23:15.336Z,14.10
2022-10-09T09:25:42.050Z,15.07
2022-10-09T09:28:20.575Z,14.70
2022-10-09T09:30:51.909Z,15.07
2022-10-09T09:33:18.928Z,14.48
2022-10-09T09:35:59.633Z,16.25
2022-10-09T09:38:22.284Z,13.95
2022-10-09T09:40:47.188Z,13.57
2022-10-09T09:43:22.500Z,12.63
2022-10-09T09:45:46.621Z,13.15
2022-10-09T09:48:37.210Z,11.25
2022-10-09T09:51:23.599Z,12.32
2022-10-09T09:53:50.058Z,12.20
2022-10-09T09:56:12.628Z,11.35
2022-10-09T09:58:50.007Z,11.75
2022-10-09T10:01:25.352Z,13.35
2022-10-09T10:03:50.760Z,11.73
2022-10-09T10:06:29.079Z,11.27
2022-10-09T10:09:24.622Z,10.63
2022-10-09T10:12:00.529Z,11.60
2022-10-09T10:14:23.583Z,13.43
2022-10-09T10:16:49.896Z,12.82
2022-10-09T10:19:25.077Z,11.40
2022-10-09T10:21:54.852Z,10.63
2022-10-09T10:24:22.946Z,10.85
2022-10-09T10:26:53.027Z,12.68
2022-10-09T10:29:17.563Z,11.30
2022-10-09T10:31:58.439Z,10.03
2022-10-09T10:34:27.799Z,10.55
2022-10-09T10:37:01.112Z,11.60
2022-10-09T10:39:39.858Z,11.35
2022-10-09T10:42:06.913Z,13.90
2022-10-09T10:44:37.260Z,11.93
2022-10-09T10:47:06.651Z,12.15
2022-10-09T10:49:33.486Z,13.75
2022-10-09T10:52:06.620Z,11.43
2022-10-09T10:54:38.087Z,10.57
2022-10-09T10:57:29.686Z,14.03
2022-10-09T11:00:11.675Z,10.45
2022-10-09T11:02:49.500Z,12.07
2022-10-09T11:05:27.029Z,9.05
2022-10-09T11:08:13.935Z,9.23
2022-10-09T11:10:54.193Z,10.13
2022-10-09T11:13:25.816Z,11.40
2022-10-09T11:15:54.021Z,9.80
2022-10-09T11:18:33.077Z,10.60
2022-10-09T11:21:04.329Z,8.63
2022-10-09T11:23:48.013Z,9.27
2022-10-09T11:26:22.896Z,9.80
2022-10-09T11:28:50.619Z,11.15
2022-10-09T11:31:22.158Z,10.60
2022-10-09T11:33:48.727Z,9.73
2022-10-09T11:36:18.555Z,9.43
2022-10-09T11:38:46.279Z,8.38
2022-10-09T11:41:09.511Z,8.85
2022-10-09T11:43:38.315Z,10.10
2022-10-09T11:46:29.351Z,7.60
2022-10-09T11:49:21.543Z,10.13
2022-10-09T11:52:08.271Z,10.90
2022-10-09T11:54:31.175Z,9.10
2022-10-09T11:56:59.793Z,10.23
2022-10-09T11:59:28.780Z,8.07
2022-10-09T12:01:51.682Z,9.03
2022-10-09T12:04:14.193Z,10.65
2022-10-09T12:06:53.115Z,12.50
2022-10-09T12:09:48.414Z,8.75
2022-10-09T12:12:16.829Z,8.38
2022-10-09T12:14:39.435Z,9.17
2022-10-09T12:17:14.200Z,9.50
2022-10-09T12:19:40.106Z,11.00
2022-10-09T12:22:07.664Z,11.50
2022-10-09T12:24:39.212Z,12.60
2022-10-09T12:27:03.341Z,12.13
2022-10-09T12:29:34.854Z,11.63
2022-10-09T12:32:05.879Z,13.32
2022-10-09T12:34:52.096Z,12.82
2022-10-09T12:37:30.687Z,11.68
2022-10-09T12:39:53.287Z,10.63
2022-10-09T12:42:25.200Z,13.77
2022-10-09T12:44:50.637Z,10.88
2022-10-09T12:47:21.887Z,9.27
2022-10-09T12:49:55.584Z,6.85
2022-10-09T12:52:18.374Z,6.30
2022-10-09T12:54:44.312Z,5.97
2022-10-09T12:57:14.120Z,7.82
2022-10-09T12:59:37.567Z,12.88
2022-10-09T13:02:00.554Z,7.95
2022-10-09T13:04:27.767Z,15.27
2022-10-09T13:06:52.123Z,14.38
2022-10-09T13:09:25.096Z,13.93
2022-10-09T13:12:00.109Z,13.60
2022-10-09T13:14:35.634Z,16.55
2022-10-09T13:16:58.278Z,12.07
2022-10-09T13:19:27.327Z,13.25
2022-10-09T13:22:26.809Z,16.27
2022-10-09T13:24:55.553Z,13.35
2022-10-09T13:27:19.668Z,13.70
2022-10-09T13:29:43.377Z,16.17
2022-10-09T13:32:09.028Z,15.63
2022-10-09T13:34:31.680Z,18.50
2022-10-09T13:36:54.288Z,13.13
2022-10-09T13:39:17.190Z,17.65
2022-10-09T13:41:39.822Z,16.27
2022-10-09T13:44:02.478Z,14.75
2022-10-09T13:46:25.363Z,16.63
2022-10-09T13:48:48.001Z,17.63
2022-10-09T13:51:10.979Z,12.95
2022-10-09T13:53:34.117Z,14.30
2022-10-09T13:56:00.762Z,13.80
2022-10-09T13:58:23.921Z,13.82
2022-10-09T14:00:46.834Z,15.18
2022-10-09T14:03:09.841Z,14.85
2022-10-09T14:05:32.329Z,15.73
2022-10-09T14:07:55.504Z,14.38
2022-10-09T14:10:23.004Z,12.18
2022-10-09T14:12:46.798Z,15.82
2022-10-09T14:15:09.869Z,15.85
2022-10-09T14:17:32.714Z,16.73
2022-10-09T14:19:55.524Z,15.85
2022-10-09T14:22:18.148Z,15.88
2022-10-09T14:24:41.067Z,13.90
2022-10-09T14:27:03.686Z,13.98
2022-10-09T14:29:26.254Z,20.10
2022-10-09T14:31:51.828Z,13.25
2022-10-09T14:34:14.882Z,14.98
2022-10-09T14:36:37.488Z,14.90
2022-10-09T14:39:03.727Z,14.98
2022-10-09T14:41:26.499Z,16.40
2022-10-09T14:43:57.006Z,15.00
2022-10-09T14:46:19.634Z,16.70
2022-10-09T14:48:42.677Z,15.35
2022-10-09T14:51:07.813Z,16.45
2022-10-09T14:53:30.272Z,15.03
2022-10-09T14:55:52.897Z,16.98
2022-10-09T14:58:15.346Z,16.33
2022-10-09T15:00:37.987Z,16.52
2022-10-09T15:03:00.532Z,14.50
2022-10-09T15:05:23.264Z,13.57
2022-10-09T15:07:45.864Z,16.70
2022-10-09T15:10:08.797Z,16.15
2022-10-09T15:12:31.357Z,16.30
2022-10-09T15:14:54.106Z,15.32
2022-10-09T15:17:16.622Z,14.90
2022-10-09T15:19:40.532Z,16.38
2022-10-09T15:22:03.690Z,14.10
2022-10-09T15:24:26.207Z,16.25
2022-10-09T15:26:48.674Z,15.63
2022-10-09T15:29:12.151Z,18.53
2022-10-09T15:31:37.629Z,14.95
2022-10-09T15:34:03.472Z,17.92
2022-10-09T15:36:26.244Z,15.93
2022-10-09T15:38:50.214Z,20.83
2022-10-09T15:41:25.060Z,19.27
2022-10-09T15:43:48.408Z,19.02
2022-10-09T15:46:10.954Z,17.38
2022-10-09T15:48:33.633Z,19.40
2022-10-09T15:50:56.499Z,17.00
2022-10-09T15:53:22.962Z,17.43
2022-10-09T15:55:47.347Z,19.30
2022-10-09T15:58:10.687Z,18.33
2022-10-09T16:00:38.518Z,17.33
2022-10-09T16:03:01.407Z,18.58
2022-10-09T16:05:23.956Z,18.63
2022-10-09T16:07:47.365Z,18.98
2022-10-09T16:10:10.741Z,21.20
2022-10-09T16:12:33.584Z,22.90
2022-10-09T16:14:56.150Z,24.00
2022-10-09T16:17:18.731Z,27.23
2022-10-09T16:19:41.640Z,25.85
2022-10-09T16:22:05.164Z,24.38
2022-10-09T16:24:27.617Z,22.33
2022-10-09T16:26:51.073Z,22.38
2022-10-09T16:29:13.569Z,24.57
2022-10-09T16:31:36.952Z,22.50
2022-10-09T16:33:59.455Z,24.98
2022-10-09T16:36:22.415Z,22.80
2022-10-09T16:38:45.441Z,20.73
2022-10-09T16:41:14.751Z,19.60
2022-10-09T16:43:38.527Z,22.80
2022-10-09T16:46:32.276Z,20.85
2022-10-09T16:48:57.415Z,22.25
2022-10-09T16:51:23.917Z,22.25
2022-10-09T16:53:53.039Z,21.23
2022-10-09T16:56:19.895Z,18.98
2022-10-09T16:58:43.324Z,20.85
2022-10-09T17:01:09.830Z,20.80
2022-10-09T17:03:33.016Z,26.02
2022-10-09T17:05:55.705Z,43.03
2022-10-09T17:08:18.241Z,34.63
2022-10-09T17:10:42.243Z,38.67
2022-10-09T17:13:04.819Z,39.78
2022-10-09T17:15:27.726Z,40.60
2022-10-09T17:17:50.777Z,38.37
2022-10-09T17:20:13.994Z,33.38
2022-10-09T17:22:36.770Z,28.63
2022-10-09T17:24:59.438Z,30.02
2022-10-09T17:27:22.143Z,29.75
2022-10-09T17:29:44.679Z,27.50
2022-10-09T17:32:09.265Z,30.55
2022-10-09T17:34:31.831Z,29.27
2022-10-09T17:36:54.568Z,28.98
2022-10-09T17:39:18.332Z,31.13
2022-10-09T17:41:41.316Z,29.40
2022-10-09T17:44:04.675Z,25.65
2022-10-09T17:46:28.870Z,26.75
2022-10-09T17:48:56.135Z,25.73
2022-10-09T17:51:32.539Z,27.20
2022-10-09T17:56:26.097Z,22.40
2022-10-09T17:59:09.555Z,23.88
2022-10-09T18:01:32.533Z,23.33
2022-10-09T18:03:55.192Z,23.15
2022-10-09T18:06:19.924Z,21.63
2022-10-09T18:08:43.121Z,20.13
2022-10-09T18:11:09.039Z,21.25
2022-10-09T18:13:32.135Z,18.50
2022-10-09T18:15:54.771Z,17.88
2022-10-09T18:18:18.936Z,20.30
2022-10-09T18:20:41.780Z,22.25
2022-10-09T18:23:05.299Z,17.52
2022-10-09T18:25:27.804Z,18.73
2022-10-09T18:27:50.797Z,17.33
2022-10-09T18:30:14.012Z,17.90
2022-10-09T18:32:36.845Z,18.73
2022-10-09T18:34:59.458Z,18.85
2022-10-09T18:37:22.178Z,19.05
2022-10-09T18:39:45.228Z,19.67
2022-10-09T18:42:08.135Z,19.03
2022-10-09T18:44:33.978Z,19.75
2022-10-09T18:46:59.045Z,23.27
2022-10-09T18:49:29.360Z,23.58
2022-10-09T18:51:52.437Z,23.42
2022-10-09T18:54:18.296Z,21.67
2022-10-09T18:56:41.532Z,19.77
2022-10-09T18:59:08.736Z,22.45
2022-10-09T19:01:31.388Z,22.30
2022-10-09T19:03:54.079Z,21.85
2022-10-09T19:06:17.634Z,21.93
2022-10-09T19:08:40.221Z,21.70
2022-10-09T19:11:03.586Z,18.45
2022-10-09T19:13:26.834Z,21.25
2022-10-09T19:15:58.700Z,19.63
2022-10-09T19:18:22.292Z,20.23
2022-10-09T19:20:44.972Z,20.05
2022-10-09T19:23:08.522Z,18.75
2022-10-09T19:25:31.906Z,19.15
2022-10-09T19:27:54.800Z,19.80
2022-10-09T19:30:17.494Z,19.57
2022-10-09T19:32:40.015Z,20.17
2022-10-09T19:35:02.849Z,19.40
2022-10-09T19:37:28.918Z,18.88
2022-10-09T19:39:52.736Z,20.80
2022-10-09T19:42:16.627Z,20.10
2022-10-09T19:44:42.138Z,20.60
2022-10-09T19:47:05.115Z,19.20
2022-10-09T19:49:31.655Z,18.83
2022-10-09T19:51:54.690Z,17.50
2022-10-09T19:54:18.176Z,17.47
2022-10-09T19:56:41.069Z,20.60
2022-10-09T19:59:07.969Z,18.38
2022-10-09T20:01:32.832Z,18.77
2022-10-09T20:03:57.145Z,16.42
2022-10-09T20:06:19.682Z,20.20
2022-10-09T20:08:43.865Z,18.27
2022-10-09T20:11:07.499Z,15.82
2022-10-09T20:13:34.838Z,17.27
2022-10-09T20:15:59.915Z,17.23
2022-10-09T20:18:23.706Z,16.40
2022-10-09T20:20:48.107Z,17.08
2022-10-09T20:23:10.637Z,18.08
2022-10-09T20:25:34.041Z,16.98
2022-10-09T20:27:56.563Z,22.08
2022-10-09T20:30:19.112Z,16.33
2022-10-09T20:32:42.279Z,15.70
2022-10-09T20:35:05.400Z,14.50
2022-10-09T20:37:28.309Z,15.48
2022-10-09T20:39:51.133Z,14.32
2022-10-09T20:42:14.122Z,15.10
2022-10-09T20:44:36.881Z,13.80
2022-10-09T20:46:59.682Z,12.57
2022-10-09T20:49:23.379Z,13.52
2022-10-09T20:51:45.909Z,13.27
2022-10-09T20:54:13.800Z,12.90
2022-10-09T20:56:36.775Z,14.35
2022-10-09T20:59:00.793Z,11.38
2022-10-09T21:01:24.597Z,13.43
2022-10-09T21:03:47.695Z,13.93
2022-10-09T21:06:12.996Z,10.80
2022-10-09T21:08:36.107Z,9.90
2022-10-09T21:10:58.890Z,10.13
2022-10-09T21:13:21.513Z,11.50
2022-10-09T21:15:46.443Z,12.35
2022-10-09T21:18:09.148Z,13.97
2022-10-09T21:20:31.583Z,10.95
2022-10-09T21:22:54.105Z,11.52
2022-10-09T21:25:16.621Z,17.02
2022-10-09T21:27:39.199Z,11.27
2022-10-09T21:30:01.844Z,11.43
2022-10-09T21:32:24.847Z,11.02
2022-10-09T21:34:47.529Z,12.45
2022-10-09T21:37:26.034Z,12.93
2022-10-09T21:39:48.900Z,11.90
2022-10-09T21:42:11.446Z,11.60
2022-10-09T21:44:34.952Z,13.45
2022-10-09T21:46:57.530Z,9.93
2022-10-09T21:49:25.800Z,10.00
2022-10-09T21:51:48.763Z,8.98
2022-10-09T21:54:11.320Z,10.13
2022-10-09T21:56:33.959Z,10.15
2022-10-09T21:58:57.224Z,9.60
2022-10-09T22:01:19.835Z,9.23
2022-10-09T22:03:42.585Z,7.15
2022-10-09T22:06:17.754Z,8.63
2022-10-09T22:08:42.483Z,7.45
2022-10-09T22:11:06.932Z,9.13
2022-10-09T22:13:29.405Z,9.10
2022-10-09T22:15:52.277Z,6.65
2022-10-09T22:18:15.168Z,7.43
2022-10-09T22:20:50.106Z,6.68
2022-10-09T22:23:14.159Z,7.07
2022-10-09T22:25:37.608Z,8.60
2022-10-09T22:28:00.170Z,7.15
2022-10-09T22:30:22.715Z,8.73
2022-10-09T22:32:45.215Z,10.80
2022-10-09T22:35:08.141Z,8.68
2022-10-09T22:37:30.817Z,7.38
2022-10-09T22:39:53.498Z,8.60
2022-10-09T22:42:16.184Z,7.50
2022-10-09T22:44:38.993Z,6.07
2022-10-09T22:47:01.576Z,6.65
2022-10-09T22:49:24.073Z,7.38
2022-10-09T22:51:46.615Z,6.50
2022-10-09T22:54:10.777Z,6.27
2022-10-09T22:56:36.537Z,10.55
2022-10-09T22:58:59.246Z,8.88
2022-10-09T23:01:34.902Z,8.43
2022-10-09T23:04:03.410Z,5.88
2022-10-09T23:06:26.235Z,6.50
2022-10-09T23:08:49.302Z,7.45
2022-10-09T23:11:13.636Z,9.27
2022-10-09T23:13:37.027Z,7.72
2022-10-09T23:16:00.959Z,7.85
2022-10-09T23:18:23.571Z,6.17
2022-10-09T23:20:46.262Z,6.90
2022-10-09T23:23:08.801Z,8.73
2022-10-09T23:25:31.441Z,5.88
2022-10-09T23:27:54.169Z,6.93
2022-10-09T23:30:16.692Z,6.13
2022-10-09T23:32:39.277Z,5.88
2022-10-09T23:35:01.800Z,6.15
2022-10-09T23:37:24.442Z,5.25
2022-10-09T23:39:47.062Z,6.40
2022-10-09T23:42:09.610Z,6.43
2022-10-09T23:44:32.034Z,6.47
2022-10-09T23:46:54.819Z,5.53
2022-10-09T23:49:18.479Z,7.28
2022-10-09T23:51:41.001Z,6.70
2022-10-09T23:54:03.662Z,6.10
2022-10-09T23:56:31.772Z,5.63
2022-10-09T23:58:55.711Z,5.13
